Time;durP1;ratioP1;P1;durP2;ratioP2;P2;SDS_P1;SDS_P2;PMS_P1;PMS_P2;Temp;Humidity;BMP_temperature;BMP_pressure;BME280_temperature;BME280_humidity;BME280_pressure;Samples;Min_cycle;Max_cycle;Signal;HPM_P1;HPM_P2
2023/04/30 00:01:24;;;;;;;0.40;0.30;;;;;;;12.90;90.74;95072.94;5056275;28;20907;-63
2023/04/30 00:03:52;;;;;;;0.53;0.40;;;;;;;13.10;87.31;95072.66;5071304;28;20467;-63
2023/04/30 00:06:21;;;;;;;0.30;0.20;;;;;;;13.01;87.42;95069.03;5071112;28;20962;-63
2023/04/30 00:08:49;;;;;;;0.40;0.30;;;;;;;13.05;87.23;95063.94;5070762;28;20448;-63
2023/04/30 00:11:18;;;;;;;0.40;0.30;;;;;;;13.13;86.71;95065.97;5071737;28;20445;-63
2023/04/30 00:13:47;;;;;;;4.10;0.57;;;;;;;13.05;86.41;95051.41;5071393;28;20507;-63
2023/04/30 00:16:15;;;;;;;0.50;0.30;;;;;;;12.72;88.70;95071.84;5082815;28;20438;-63
2023/04/30 00:18:44;;;;;;;0.70;0.70;;;;;;;12.70;89.76;95063.38;5082764;28;20498;-63
2023/04/30 00:21:12;;;;;;;0.30;0.20;;;;;;;12.88;88.92;95068.97;5071977;28;20835;-64
2023/04/30 00:23:41;;;;;;;0.40;0.30;;;;;;;13.03;86.18;95060.78;5071844;28;20437;-63
2023/04/30 00:26:09;;;;;;;0.30;0.20;;;;;;;12.97;86.01;95059.25;5071388;28;20473;-63
2023/04/30 00:28:37;;;;;;;0.40;0.30;;;;;;;12.58;88.81;95055.03;5071747;28;20520;-63
2023/04/30 00:31:10;;;;;;;0.37;0.30;;;;;;;12.58;89.08;95065.69;5071638;28;20437;-63
2023/04/30 00:33:38;;;;;;;0.30;0.20;;;;;;;12.61;88.09;95069.63;5071525;28;21025;-63
2023/04/30 00:36:07;;;;;;;0.30;0.20;;;;;;;12.75;86.82;95063.28;5071512;28;20533;-64
2023/04/30 00:38:35;;;;;;;0.70;0.40;;;;;;;12.82;85.96;95065.59;5071361;28;20517;-63
2023/04/30 00:41:04;;;;;;;0.30;0.20;;;;;;;12.52;85.61;95021.63;5071169;28;20975;-64
2023/04/30 00:43:33;;;;;;;0.70;0.50;;;;;;;12.70;85.41;95059.91;5071362;28;20456;-64
2023/04/30 00:46:02;;;;;;;0.80;0.80;;;;;;;12.47;84.46;95024.34;5071463;28;20561;-63
2023/04/30 00:48:32;;;;;;;0.40;0.30;;;;;;;12.75;84.38;95071.28;5071738;28;20438;-63
2023/04/30 00:51:02;;;;;;;0.57;0.40;;;;;;;12.72;83.88;95071.06;5071003;28;20456;-63
2023/04/30 00:53:31;;;;;;;0.50;0.37;;;;;;;12.33;86.81;95073.19;5071505;28;20819;-63
2023/04/30 00:55:59;;;;;;;0.40;0.30;;;;;;;12.49;85.29;95082.56;5070899;28;20536;-63
2023/04/30 00:58:30;;;;;;;0.50;0.50;;;;;;;12.43;87.33;95073.06;5071274;28;20442;-63
2023/04/30 01:00:58;;;;;;;0.50;0.37;;;;;;;12.20;88.03;95074.69;5070861;28;20484;-63
2023/04/30 01:03:28;;;;;;;0.40;0.30;;;;;;;12.13;89.33;95068.94;5071261;28;20449;-63
2023/04/30 01:05:58;;;;;;;0.50;0.30;;;;;;;12.23;87.54;95054.72;5070964;28;20457;-63
2023/04/30 01:08:26;;;;;;;0.50;0.30;;;;;;;12.37;86.96;95072.34;5071002;28;20438;-63
2023/04/30 01:11:03;;;;;;;1.07;0.30;;;;;;;12.21;88.07;95062.19;5073182;28;20441;-63
2023/04/30 01:13:40;;;;;;;0.70;0.47;;;;;;;12.25;87.39;95060.53;5075275;28;20469;-63
2023/04/30 01:16:15;;;;;;;0.53;0.33;;;;;;;12.34;86.50;95064.97;5050272;28;20477;-63
2023/04/30 01:18:49;;;;;;;0.40;0.30;;;;;;;12.36;86.09;95068.13;5074812;28;20444;-63
2023/04/30 01:21:19;;;;;;;0.40;0.40;;;;;;;12.37;86.49;95074.22;5075084;28;20969;-63
2023/04/30 01:24:13;;;;;;;0.30;0.30;;;;;;;12.37;85.83;95071.56;5074698;28;20957;-63
2023/04/30 01:26:53;;;;;;;0.80;0.50;;;;;;;12.20;87.33;95068.56;5074257;28;20990;-63
2023/04/30 01:29:25;;;;;;;0.40;0.30;;;;;;;12.23;87.26;95062.69;5074740;28;20445;-63
2023/04/30 01:31:53;;;;;;;0.40;0.30;;;;;;;12.29;86.47;95064.22;5074597;28;20434;-63
2023/04/30 01:34:21;;;;;;;0.73;0.30;;;;;;;12.32;85.29;95055.69;5074677;28;20946;-63
2023/04/30 01:37:04;;;;;;;0.40;0.30;;;;;;;12.19;86.35;95061.69;5074264;28;20444;-63
2023/04/30 01:39:57;;;;;;;0.50;0.40;;;;;;;12.20;86.42;95061.41;5074279;28;20532;-64
2023/04/30 01:42:36;;;;;;;0.30;0.30;;;;;;;12.15;86.18;95058.81;5055442;28;21021;-63
2023/04/30 01:45:22;;;;;;;0.37;0.27;;;;;;;12.09;85.52;95058.06;5074254;28;20472;-64
2023/04/30 01:47:57;;;;;;;0.40;0.30;;;;;;;12.08;86.06;95059.16;5074015;28;20437;-63
2023/04/30 01:50:34;;;;;;;1.37;1.27;;;;;;;11.75;88.88;95064.59;5074650;28;20527;-64
2023/04/30 01:53:05;;;;;;;0.40;0.30;;;;;;;11.79;89.16;95070.94;5074372;28;20531;-64
2023/04/30 01:55:38;;;;;;;0.30;0.23;;;;;;;11.65;89.73;95056.69;5074246;28;20444;-63
2023/04/30 01:58:09;;;;;;;0.37;0.20;;;;;;;11.71;90.21;95069.69;5074083;28;20469;-64
2023/04/30 02:00:39;;;;;;;0.53;0.53;;;;;;;11.82;88.70;95063.19;5074162;28;20473;-63
2023/04/30 02:03:08;;;;;;;0.37;0.27;;;;;;;11.73;90.20;95064.09;5074663;28;20446;-64
2023/04/30 02:05:36;;;;;;;0.40;0.30;;;;;;;11.77;88.54;95055.28;5073802;28;20491;-63
2023/04/30 02:08:05;;;;;;;0.40;0.30;;;;;;;11.86;88.31;95058.09;5074116;28;20442;-63
2023/04/30 02:10:34;;;;;;;0.47;0.27;;;;;;;11.78;88.38;95061.38;5073907;28;20445;-63
2023/04/30 02:13:02;;;;;;;0.30;0.20;;;;;;;11.78;89.00;95056.06;5074029;28;20888;-63
2023/04/30 02:15:30;;;;;;;0.40;0.30;;;;;;;11.77;88.95;95060.59;5073975;28;20560;-64
2023/04/30 02:18:00;;;;;;;0.40;0.30;;;;;;;11.79;88.10;95058.44;5074260;28;20448;-64
2023/04/30 02:20:28;;;;;;;0.70;0.40;;;;;;;11.71;88.40;95067.03;5073318;28;20527;-63
2023/04/30 02:22:57;;;;;;;0.40;0.30;;;;;;;11.66;89.11;95061.75;5072736;28;20449;-63
2023/04/30 02:25:25;;;;;;;0.80;0.80;;;;;;;11.55;90.14;95062.13;5073410;28;20841;-64
2023/04/30 02:27:53;;;;;;;0.40;0.30;;;;;;;11.52;89.68;95062.69;5073990;28;20496;-63
2023/04/30 02:30:22;;;;;;;0.70;0.70;;;;;;;11.56;89.10;95059.16;5073229;28;20469;-64
2023/04/30 02:32:50;;;;;;;0.40;0.40;;;;;;;11.57;88.82;95057.31;5076029;28;20532;-64
2023/04/30 02:35:20;;;;;;;17.27;1.33;;;;;;;11.39;90.53;95049.00;5073076;28;20922;-63
2023/04/30 02:37:48;;;;;;;0.93;0.93;;;;;;;11.45;89.97;95055.84;5074085;28;20885;-63
2023/04/30 02:40:16;;;;;;;0.30;0.30;;;;;;;11.46;90.27;95056.63;5073274;28;20529;-63
2023/04/30 02:42:44;;;;;;;0.30;0.20;;;;;;;11.31;92.48;95059.41;5073493;28;20476;-64
2023/04/30 02:45:13;;;;;;;0.50;0.30;;;;;;;11.37;90.49;95058.31;5073397;28;20473;-63
2023/04/30 02:47:41;;;;;;;0.40;0.30;;;;;;;11.37;89.91;95060.97;5073223;28;20469;-64
2023/04/30 02:50:10;;;;;;;0.50;0.50;;;;;;;11.26;91.51;95068.22;5073361;28;20445;-64
2023/04/30 02:52:40;;;;;;;0.43;0.43;;;;;;;10.97;90.07;95013.59;5073126;28;20445;-64
2023/04/30 02:55:09;;;;;;;0.73;0.60;;;;;;;11.32;90.17;95074.28;5073380;28;20447;-64
2023/04/30 02:57:37;;;;;;;1.90;1.63;;;;;;;11.28;90.60;95073.25;5073064;28;20812;-63
2023/04/30 03:00:07;;;;;;;0.60;0.60;;;;;;;10.91;91.45;95020.78;5073267;28;20473;-64
2023/04/30 03:02:35;;;;;;;1.03;0.97;;;;;;;11.19;91.37;95078.38;5072010;28;20475;-64
2023/04/30 03:05:05;;;;;;;0.73;0.73;;;;;;;11.05;91.61;95058.06;5073398;28;20438;-64
2023/04/30 03:07:33;;;;;;;2.47;2.37;;;;;;;11.10;93.35;95082.69;5072679;28;20434;-64
2023/04/30 03:10:03;;;;;;;0.77;0.77;;;;;;;10.93;94.79;95082.28;5072792;28;20530;-64
2023/04/30 03:12:31;;;;;;;0.77;0.77;;;;;;;11.10;93.47;95092.50;5072408;28;20438;-64
2023/04/30 03:14:59;;;;;;;1.27;1.00;;;;;;;11.14;92.15;95086.38;5072969;28;20437;-64
2023/04/30 03:17:28;;;;;;;0.57;0.50;;;;;;;11.14;91.16;95083.72;5071469;28;20437;-63
2023/04/30 03:19:56;;;;;;;0.60;0.60;;;;;;;11.13;92.02;95084.78;5072033;28;20504;-62
2023/04/30 03:22:25;;;;;;;0.40;0.30;;;;;;;11.15;91.19;95087.16;5072028;28;20560;-62
2023/04/30 03:24:53;;;;;;;0.83;0.50;;;;;;;11.10;92.61;95093.31;5071975;28;20470;-62
2023/04/30 03:27:23;;;;;;;0.77;0.77;;;;;;;11.02;92.32;95088.59;5046431;28;20496;-61
2023/04/30 03:29:51;;;;;;;0.80;0.50;;;;;;;10.93;93.12;95087.59;5071576;28;20449;-62
2023/04/30 03:32:20;;;;;;;1.10;1.10;;;;;;;10.96;92.25;95086.25;5072259;28;20450;-62
2023/04/30 03:34:48;;;;;;;1.70;1.60;;;;;;;10.98;92.10;95089.44;5071147;28;20445;-62
2023/04/30 03:37:17;;;;;;;0.77;0.60;;;;;;;10.63;97.56;95099.19;5072348;28;20437;-61
2023/04/30 03:39:45;;;;;;;0.77;0.77;;;;;;;10.79;94.82;95097.25;5072131;28;20492;-61
2023/04/30 03:42:13;;;;;;;1.30;0.63;;;;;;;10.49;100.00;95100.06;5072098;28;20559;-61
2023/04/30 03:44:43;;;;;;;0.70;0.40;;;;;;;10.63;99.21;95101.03;5072116;28;20809;-62
2023/04/30 03:47:11;;;;;;;0.77;0.77;;;;;;;10.69;98.00;95100.75;5072271;28;20461;-61
2023/04/30 03:49:40;;;;;;;0.40;0.30;;;;;;;10.74;96.63;95098.06;5071888;28;20491;-61
2023/04/30 03:52:08;;;;;;;0.43;0.30;;;;;;;10.75;97.02;95101.53;5071663;28;20452;-61
2023/04/30 03:54:36;;;;;;;0.50;0.37;;;;;;;10.84;96.35;95102.50;5071706;28;20445;-61
2023/04/30 03:57:06;;;;;;;0.30;0.30;;;;;;;10.81;96.22;95111.00;5071940;28;20481;-61
2023/04/30 03:59:35;;;;;;;0.50;0.30;;;;;;;10.86;96.52;95108.31;5071884;28;20441;-60
2023/04/30 04:02:05;;;;;;;1.07;0.97;;;;;;;10.99;94.51;95107.69;5071824;28;20509;-61
2023/04/30 04:04:33;;;;;;;2.00;0.67;;;;;;;10.96;94.36;95104.78;5071550;28;20430;-60
2023/04/30 04:07:02;;;;;;;0.50;0.47;;;;;;;11.07;93.09;95103.66;5071612;28;20437;-61
2023/04/30 04:09:31;;;;;;;2.00;1.13;;;;;;;11.04;94.68;95106.88;5070890;28;20433;-61
2023/04/30 04:12:00;;;;;;;0.77;0.50;;;;;;;11.18;93.01;95105.19;5071741;28;20529;-61
2023/04/30 04:14:28;;;;;;;0.53;0.53;;;;;;;10.96;92.30;95057.88;5046077;28;21237;-61
2023/04/30 04:16:58;;;;;;;1.80;0.47;;;;;;;11.33;90.70;95107.72;5071596;28;20452;-61
2023/04/30 04:19:28;;;;;;;0.40;0.33;;;;;;;11.15;93.48;95117.13;5071616;28;20470;-61
2023/04/30 04:21:56;;;;;;;1.30;1.07;;;;;;;10.88;94.27;95061.09;5071582;28;20499;-61
2023/04/30 04:24:25;;;;;;;1.00;1.00;;;;;;;11.30;93.29;95110.91;5071237;28;20437;-61
2023/04/30 04:26:53;;;;;;;0.67;0.67;;;;;;;11.30;94.79;95114.38;5071439;28;20473;-61
2023/04/30 04:29:22;;;;;;;0.60;0.60;;;;;;;11.49;93.22;95117.09;5071615;28;20436;-61
2023/04/30 04:31:50;;;;;;;0.63;0.63;;;;;;;11.26;94.54;95121.28;5071010;28;20469;-61
2023/04/30 04:34:19;;;;;;;1.00;1.00;;;;;;;10.93;100.00;95122.06;5071548;28;20442;-64
2023/04/30 04:36:49;;;;;;;1.17;1.07;;;;;;;10.90;100.00;95129.78;5071505;28;20464;-63
2023/04/30 04:39:17;;;;;;;1.70;1.60;;;;;;;10.45;100.00;95123.66;5071161;28;20473;-62
2023/04/30 04:41:46;;;;;;;0.87;0.87;;;;;;;10.15;100.00;95135.19;5071289;28;20504;-62
2023/04/30 04:44:14;;;;;;;0.57;0.57;;;;;;;10.53;100.00;95133.69;5063592;28;20443;-61
2023/04/30 04:46:43;;;;;;;0.50;0.50;;;;;;;10.76;100.00;95135.69;5071086;28;20521;-61
2023/04/30 04:49:12;;;;;;;0.50;0.50;;;;;;;10.71;100.00;95142.88;5071591;28;20445;-61
2023/04/30 04:51:40;;;;;;;0.40;0.40;;;;;;;10.86;100.00;95129.53;5045676;28;20465;-62
2023/04/30 04:54:10;;;;;;;0.80;0.60;;;;;;;11.16;100.00;95139.94;5071238;28;20529;-61
2023/04/30 04:56:38;;;;;;;0.50;0.50;;;;;;;11.38;100.00;95142.16;5070961;28;20529;-63
2023/04/30 04:59:08;;;;;;;0.40;0.30;;;;;;;11.51;97.41;95108.88;5071074;28;20868;-63
2023/04/30 05:01:38;;;;;;;0.50;0.30;;;;;;;11.76;96.10;95145.84;5071202;28;20906;-62
2023/04/30 05:04:09;;;;;;;0.40;0.30;;;;;;;11.85;95.01;95144.13;5071135;28;20495;-63
2023/04/30 05:06:37;;;;;;;0.40;0.30;;;;;;;11.97;94.01;95144.53;5070854;28;20459;-63
2023/04/30 05:09:08;;;;;;;1.90;0.40;;;;;;;12.00;93.00;95139.47;5071373;28;20452;-63
2023/04/30 05:11:38;;;;;;;0.57;0.57;;;;;;;11.88;94.11;95135.63;5070788;28;20859;-63
2023/04/30 05:14:06;;;;;;;0.50;0.40;;;;;;;12.08;93.76;95135.41;5070804;28;20433;-64
2023/04/30 05:16:34;;;;;;;0.50;0.30;;;;;;;12.18;92.06;95132.63;5071061;28;20481;-63
2023/04/30 05:19:02;;;;;;;0.47;0.40;;;;;;;12.31;90.44;95141.78;5070690;28;20445;-62
2023/04/30 05:21:31;;;;;;;0.50;0.30;;;;;;;12.50;87.62;95119.47;5070955;28;20480;-62
2023/04/30 05:24:00;;;;;;;0.43;0.30;;;;;;;12.87;86.32;95142.66;5071026;28;20810;-61
2023/04/30 05:26:28;;;;;;;0.50;0.43;;;;;;;13.21;84.33;95143.25;5070347;28;20474;-61
2023/04/30 05:28:58;;;;;;;0.60;0.50;;;;;;;13.37;82.34;95143.81;5070333;28;20456;-60
2023/04/30 05:31:26;;;;;;;0.70;0.40;;;;;;;13.71;80.96;95135.53;5070934;28;20492;-59
2023/04/30 05:33:54;;;;;;;0.40;0.30;;;;;;;13.55;81.88;95135.00;5045013;28;20858;-60
2023/04/30 05:36:23;;;;;;;0.40;0.37;;;;;;;13.26;84.05;95139.72;5070910;28;20477;-61
2023/04/30 05:38:51;;;;;;;1.07;0.77;;;;;;;13.13;84.19;95156.44;5071046;28;20442;-60
2023/04/30 05:41:21;;;;;;;3.80;0.40;;;;;;;13.48;83.62;95142.56;5070494;28;20473;-61
2023/04/30 05:43:50;;;;;;;0.60;0.50;;;;;;;13.93;81.33;95147.13;5070862;28;20477;-60
2023/04/30 05:46:19;;;;;;;0.70;0.70;;;;;;;13.61;81.64;95144.47;5070974;28;20865;-59
2023/04/30 05:48:48;;;;;;;0.73;0.73;;;;;;;13.84;80.54;95142.75;5070935;28;20441;-61
2023/04/30 05:51:16;;;;;;;1.33;1.27;;;;;;;14.00;79.89;95144.06;5071025;28;20439;-61
2023/04/30 05:53:44;;;;;;;1.50;1.47;;;;;;;13.68;78.97;95139.56;5060381;28;20437;-61
2023/04/30 05:56:13;;;;;;;0.40;0.30;;;;;;;14.34;78.29;95122.41;5067984;28;20472;-61
2023/04/30 05:58:41;;;;;;;1.53;1.43;;;;;;;14.40;77.70;95140.66;5073898;28;20876;-61
2023/04/30 06:01:09;;;;;;;0.70;0.60;;;;;;;14.61;76.57;95139.16;5073979;28;20472;-61
2023/04/30 06:03:39;;;;;;;0.40;0.40;;;;;;;15.23;73.44;95132.19;5074509;28;20525;-61
2023/04/30 06:06:08;;;;;;;0.60;0.47;;;;;;;15.60;71.54;95132.97;5073882;28;20438;-61
2023/04/30 06:08:36;;;;;;;0.83;0.83;;;;;;;15.54;71.15;95123.47;5073766;28;20442;-61
2023/04/30 06:11:05;;;;;;;0.30;0.20;;;;;;;16.05;70.71;95128.31;5073997;28;21012;-61
2023/04/30 06:13:34;;;;;;;0.70;0.60;;;;;;;16.14;68.79;95121.91;5073609;28;20805;-61
2023/04/30 06:16:02;;;;;;;0.67;0.43;;;;;;;16.27;67.76;95117.56;5074103;28;20945;-62
2023/04/30 06:18:30;;;;;;;0.80;0.80;;;;;;;16.69;67.68;95127.66;5073382;28;20441;-62
2023/04/30 06:21:00;;;;;;;0.60;0.53;;;;;;;15.40;69.21;95053.31;5073610;28;20439;-63
2023/04/30 06:23:28;;;;;;;0.73;0.73;;;;;;;16.84;68.05;95124.53;5073720;28;20885;-63
2023/04/30 06:25:57;;;;;;;1.57;0.70;;;;;;;16.29;66.70;95118.81;5073800;28;20469;-65
2023/04/30 06:28:25;;;;;;;1.30;0.50;;;;;;;16.99;65.52;95116.03;5073408;28;20479;-64
2023/04/30 06:30:54;;;;;;;0.73;0.73;;;;;;;17.40;66.03;95104.06;5073771;28;20438;-65
2023/04/30 06:33:22;;;;;;;0.43;0.30;;;;;;;17.11;64.30;95113.53;5073269;28;20864;-65
2023/04/30 06:35:53;;;;;;;0.40;0.30;;;;;;;16.28;64.95;95046.94;5073506;28;20898;-66
2023/04/30 06:38:23;;;;;;;0.50;0.50;;;;;;;17.72;64.21;95120.44;5073530;28;20525;-66
2023/04/30 06:40:51;;;;;;;0.80;0.67;;;;;;;18.41;63.12;95101.44;5071974;28;20885;-67
2023/04/30 06:43:19;;;;;;;0.87;0.80;;;;;;;17.78;61.58;95103.06;5071719;28;20552;-67
2023/04/30 06:45:48;;;;;;;0.53;0.40;;;;;;;19.00;59.40;95086.88;5071876;28;21044;-68
2023/04/30 06:48:16;;;;;;;1.53;0.30;;;;;;;19.26;57.28;95096.63;5071354;28;20441;-68
2023/04/30 06:50:44;;;;;;;0.40;0.30;;;;;;;19.40;57.14;95057.66;5070069;28;20465;-69
2023/04/30 06:53:13;;;;;;;0.50;0.30;;;;;;;19.69;58.04;95096.25;5069511;28;20504;-67
2023/04/30 06:55:45;;;;;;;0.53;0.30;;;;;;;18.92;56.54;95034.00;5071086;28;20475;-68
2023/04/30 06:58:13;;;;;;;0.60;0.60;;;;;;;18.47;57.26;95094.78;5071465;28;20862;-70
2023/04/30 07:00:43;;;;;;;0.40;0.40;;;;;;;18.37;58.82;95079.81;5073201;28;20556;-67
2023/04/30 07:03:11;;;;;;;0.60;0.40;;;;;;;18.92;58.64;95085.03;5072533;28;20477;-67
2023/04/30 07:05:40;;;;;;;1.87;1.00;;;;;;;19.64;56.74;95095.38;5072624;28;20442;-65
2023/04/30 07:08:08;;;;;;;0.50;0.37;;;;;;;20.09;55.62;95087.28;5072419;28;20918;-64
2023/04/30 07:10:37;;;;;;;4.13;1.00;;;;;;;19.93;55.08;95093.66;5073275;28;20457;-62
2023/04/30 07:13:07;;;;;;;0.50;0.43;;;;;;;20.80;52.58;95090.34;5072521;28;20468;-62
2023/04/30 07:15:35;;;;;;;0.50;0.30;;;;;;;21.64;54.00;95093.16;5072881;28;20463;-63
2023/04/30 07:18:04;;;;;;;0.93;0.40;;;;;;;21.69;52.53;95095.63;5072972;28;20440;-65
2023/04/30 07:20:32;;;;;;;0.40;0.30;;;;;;;22.29;50.24;95084.50;5072856;28;20441;-67
2023/04/30 07:23:01;;;;;;;0.97;0.43;;;;;;;22.58;49.99;95081.34;5072981;28;20842;-70
2023/04/30 07:25:29;;;;;;;1.30;0.70;;;;;;;22.64;49.36;95084.59;5072187;28;20481;-71
2023/04/30 07:27:57;;;;;;;0.67;0.40;;;;;;;22.28;47.85;95085.63;5072956;28;20474;-71
2023/04/30 07:30:27;;;;;;;0.80;0.80;;;;;;;22.44;47.96;95086.41;5072776;28;20946;-70
2023/04/30 07:32:56;;;;;;;0.70;0.70;;;;;;;22.26;46.80;95082.50;5072783;28;20531;-67
2023/04/30 07:35:25;;;;;;;0.80;0.70;;;;;;;22.47;48.15;95083.00;5073041;28;20516;-66
2023/04/30 07:37:53;;;;;;;1.63;1.53;;;;;;;23.14;46.63;95073.75;5072057;28;20446;-69
2023/04/30 07:40:21;;;;;;;0.40;0.30;;;;;;;23.53;45.23;95009.63;5072902;28;20524;-72
2023/04/30 07:43:03;;;;;;;0.93;0.80;;;;;;;23.83;44.01;95063.94;5071757;28;20981;-71
2023/04/30 07:45:34;;;;;;;0.60;0.60;;;;;;;23.99;45.27;95056.47;5072392;28;20472;-75
2023/04/30 07:48:02;;;;;;;0.50;0.40;;;;;;;24.29;43.00;95041.16;5059112;28;20926;-73
2023/04/30 07:50:33;;;;;;;0.53;0.53;;;;;;;24.36;42.58;95071.06;5072115;28;20992;-75
2023/04/30 07:53:02;;;;;;;0.50;0.40;;;;;;;23.47;45.14;95067.88;5072029;28;21165;-77
2023/04/30 07:55:30;;;;;;;0.40;0.33;;;;;;;22.57;45.64;95035.75;5072384;28;20438;-77
2023/04/30 07:57:59;;;;;;;3.20;0.63;;;;;;;22.04;46.38;95064.19;5072223;28;20456;-76
2023/04/30 08:00:28;;;;;;;0.60;0.50;;;;;;;22.30;46.87;95058.28;5072288;28;20434;-74
2023/04/30 08:02:59;;;;;;;0.50;0.50;;;;;;;21.79;47.26;95063.53;5072237;28;20491;-73
2023/04/30 08:05:28;;;;;;;0.50;0.37;;;;;;;21.74;47.37;95060.28;5072114;28;20828;-71
2023/04/30 08:07:56;;;;;;;0.50;0.40;;;;;;;22.81;45.94;95061.81;5072420;28;20499;-74
2023/04/30 08:10:25;;;;;;;0.83;0.83;;;;;;;23.31;44.17;95054.41;5072047;28;20465;-70
2023/04/30 08:12:53;;;;;;;0.40;0.30;;;;;;;24.27;43.15;95048.88;5071797;28;20433;-69
2023/04/30 08:15:22;;;;;;;0.50;0.40;;;;;;;23.84;43.50;95054.66;5071972;28;20528;-68
2023/04/30 08:17:51;;;;;;;0.73;0.73;;;;;;;24.19;42.55;95020.09;5071719;28;20837;-69
2023/04/30 08:20:22;;;;;;;7.83;1.20;;;;;;;24.85;41.44;95051.31;5070430;28;20445;-68
2023/04/30 08:22:51;;;;;;;0.40;0.30;;;;;;;23.86;42.87;95045.03;5071405;28;20847;-69
2023/04/30 08:25:19;;;;;;;0.70;0.40;;;;;;;23.75;43.14;95027.84;5070737;28;20493;-73
2023/04/30 08:27:48;;;;;;;0.50;0.50;;;;;;;23.12;44.49;95053.63;5071284;28;20453;-76
2023/04/30 08:30:16;;;;;;;0.80;0.50;;;;;;;23.10;43.23;95047.75;5071699;28;20465;-76
2023/04/30 08:32:44;;;;;;;1.23;1.17;;;;;;;22.27;44.44;95003.06;5072288;28;20525;-74
2023/04/30 08:35:13;;;;;;;0.63;0.63;;;;;;;22.55;44.49;95046.13;5072163;28;20426;-73
2023/04/30 08:37:42;;;;;;;1.53;0.67;;;;;;;22.46;44.35;95042.84;5071923;28;20785;-71
2023/04/30 08:40:12;;;;;;;0.70;0.67;;;;;;;22.17;44.91;94973.13;5071641;28;20437;-70
2023/04/30 08:42:45;;;;;;;0.63;0.57;;;;;;;21.95;45.71;95034.69;5071373;28;20461;-71
2023/04/30 08:45:13;;;;;;;0.70;0.70;;;;;;;22.67;45.24;95027.94;5071675;28;20512;-73
2023/04/30 08:47:43;;;;;;;0.53;0.53;;;;;;;22.18;45.80;95036.78;5071775;28;20466;-74
2023/04/30 08:50:12;;;;;;;0.47;0.40;;;;;;;21.98;46.59;95038.63;5071752;28;21063;-72
2023/04/30 08:52:42;;;;;;;0.40;0.40;;;;;;;22.98;45.11;95023.56;5071046;28;20465;-72
2023/04/30 08:55:11;;;;;;;0.70;0.70;;;;;;;24.37;43.05;95020.38;5071870;28;20804;-67
2023/04/30 08:57:39;;;;;;;0.40;0.30;;;;;;;23.71;42.98;95018.88;5071125;28;20456;-68
2023/04/30 09:00:09;;;;;;;0.50;0.40;;;;;;;24.12;41.77;95011.88;5071365;28;20520;-71
2023/04/30 09:02:41;;;;;;;0.40;0.30;;;;;;;24.32;41.56;95021.47;5071567;28;20520;-70
2023/04/30 09:05:12;;;;;;;0.90;0.90;;;;;;;24.46;41.13;94972.91;5071340;28;20578;-68
2023/04/30 09:07:43;;;;;;;0.50;0.40;;;;;;;25.82;36.90;95007.59;5071333;28;20437;-69
2023/04/30 09:10:33;;;;;;;0.50;0.40;;;;;;;25.70;37.51;95010.53;5071480;28;20818;-70
2023/04/30 09:13:03;;;;;;;0.60;0.60;;;;;;;25.95;39.22;95004.59;5071102;28;20438;-67
2023/04/30 09:15:33;;;;;;;0.87;0.87;;;;;;;25.71;38.60;94938.03;5079232;28;20531;-67
2023/04/30 09:18:09;;;;;;;0.40;0.30;;;;;;;26.96;37.01;94990.22;5072508;28;20440;-67
2023/04/30 09:20:53;;;;;;;0.67;0.53;;;;;;;27.69;35.07;94991.69;5071419;28;20465;-69
2023/04/30 09:23:23;;;;;;;0.70;0.70;;;;;;;27.49;34.20;94988.53;5070878;28;20528;-69
2023/04/30 09:25:51;;;;;;;0.93;0.67;;;;;;;28.02;34.74;94980.47;5071977;28;20511;-69
2023/04/30 09:28:22;;;;;;;0.40;0.40;;;;;;;27.56;36.21;94958.59;5072342;28;20916;-72
2023/04/30 09:30:52;;;;;;;0.63;0.50;;;;;;;27.40;33.90;94979.19;5072518;28;20527;-73
2023/04/30 09:33:20;;;;;;;1.53;0.50;;;;;;;27.48;32.56;94975.28;5074859;28;20434;-68
2023/04/30 09:35:49;;;;;;;1.63;0.60;;;;;;;27.57;33.68;94971.06;5075196;28;20982;-71
2023/04/30 09:38:29;;;;;;;1.17;0.40;;;;;;;26.23;36.03;94964.91;5074939;28;20430;-71
2023/04/30 09:40:59;;;;;;;1.13;0.30;;;;;;;25.86;36.73;94969.59;5075073;28;21004;-70
2023/04/30 09:43:27;;;;;;;0.60;0.60;;;;;;;26.75;36.49;94958.22;5074501;28;20802;-73
2023/04/30 09:45:58;;;;;;;0.80;0.80;;;;;;;26.87;35.84;94959.88;5075074;28;20564;-68
2023/04/30 09:48:27;;;;;;;0.40;0.40;;;;;;;26.89;34.98;94865.09;5074598;28;21021;-68
2023/04/30 09:50:56;;;;;;;1.10;0.80;;;;;;;26.42;35.38;94959.19;5074639;28;20434;-69
2023/04/30 09:53:24;;;;;;;0.70;0.70;;;;;;;25.85;35.10;94951.75;5074623;28;20461;-69
2023/04/30 09:55:54;;;;;;;0.50;0.50;;;;;;;24.92;36.04;94949.19;5074536;28;20448;-71
2023/04/30 09:58:28;;;;;;;0.80;0.50;;;;;;;25.02;37.38;94948.53;5074374;28;20457;-72
2023/04/30 10:00:59;;;;;;;0.40;0.40;;;;;;;24.51;37.40;94945.53;5074384;28;20468;-72
2023/04/30 10:03:28;;;;;;;0.60;0.60;;;;;;;24.69;36.80;94943.06;5074283;28;20472;-76
2023/04/30 10:06:03;;;;;;;1.30;0.50;;;;;;;25.78;34.53;94940.81;5074167;28;20861;-71
2023/04/30 10:08:38;;;;;;;0.60;0.60;;;;;;;27.79;33.87;94922.06;5073752;28;20437;-70
2023/04/30 10:11:11;;;;;;;0.50;0.50;;;;;;;28.36;33.25;94923.59;5074582;28;20437;-68
2023/04/30 10:13:43;;;;;;;0.70;0.60;;;;;;;26.77;32.29;94915.16;5073917;28;20521;-67
2023/04/30 10:16:18;;;;;;;0.60;0.40;;;;;;;28.50;30.97;94917.38;5074037;28;20454;-66
2023/04/30 10:18:51;;;;;;;0.70;0.70;;;;;;;29.53;30.88;94921.28;5074053;28;20551;-66
2023/04/30 10:21:23;;;;;;;0.77;0.77;;;;;;;29.69;29.24;94915.34;5073887;28;20939;-66
2023/04/30 10:23:52;;;;;;;0.50;0.30;;;;;;;30.02;28.60;94909.25;5074088;28;20442;-65
2023/04/30 10:26:23;;;;;;;0.30;0.30;;;;;;;29.25;28.38;94916.75;5073723;28;20520;-64
2023/04/30 10:28:54;;;;;;;0.40;0.30;;;;;;;30.01;28.09;94911.22;5073893;28;20445;-66
2023/04/30 10:31:22;;;;;;;13.13;0.90;;;;;;;28.43;29.38;94904.53;5073379;28;20784;-66
2023/04/30 10:33:59;;;;;;;0.30;0.30;;;;;;;27.73;31.44;94911.53;5073437;28;20433;-69
2023/04/30 10:36:34;;;;;;;0.80;0.80;;;;;;;26.18;32.31;94921.78;5073589;28;20452;-69
2023/04/30 10:39:03;;;;;;;1.10;0.60;;;;;;;26.14;31.94;94868.56;5073621;28;20473;-66
2023/04/30 10:41:33;;;;;;;0.40;0.40;;;;;;;27.98;31.64;94899.91;5073317;28;20441;-68
2023/04/30 10:44:04;;;;;;;0.50;0.37;;;;;;;27.68;30.34;94859.41;5072983;28;20869;-68
2023/04/30 10:46:35;;;;;;;0.50;0.50;;;;;;;27.61;31.68;94900.25;5073076;28;20536;-69
2023/04/30 10:49:04;;;;;;;0.40;0.30;;;;;;;27.10;32.29;94856.97;5073304;28;20457;-71
2023/04/30 10:51:53;;;;;;;0.90;0.50;;;;;;;26.02;32.59;94904.94;5073595;28;20448;-71
2023/04/30 10:54:26;;;;;;;5.60;1.50;;;;;;;25.63;32.20;94893.75;5073067;28;20434;-74
2023/04/30 10:57:10;;;;;;;5.30;0.70;;;;;;;24.86;33.70;94896.44;5073476;28;20509;-74
2023/04/30 10:59:43;;;;;;;0.40;0.30;;;;;;;24.18;34.50;94899.41;5072646;28;20508;-74
2023/04/30 11:02:15;;;;;;;0.50;0.40;;;;;;;23.58;35.96;94901.13;5072626;28;20429;-72
2023/04/30 11:05:12;;;;;;;0.43;0.30;;;;;;;25.29;34.77;94897.69;5047546;28;20470;-69
2023/04/30 11:07:49;;;;;;;0.70;0.70;;;;;;;25.78;33.98;94891.94;5072977;28;20465;-69
2023/04/30 11:10:21;;;;;;;0.50;0.30;;;;;;;25.04;35.68;94894.72;5072737;28;20441;-68
2023/04/30 11:12:52;;;;;;;1.17;0.60;;;;;;;24.69;35.06;94891.56;5046370;28;20791;-68
2023/04/30 11:15:24;;;;;;;1.23;1.13;;;;;;;24.73;34.10;94888.88;5073056;28;20437;-67
2023/04/30 11:17:57;;;;;;;0.60;0.40;;;;;;;24.93;33.08;94891.09;5072745;28;20456;-69
2023/04/30 11:20:26;;;;;;;0.40;0.30;;;;;;;26.11;32.22;94880.94;5072669;28;21194;-70
2023/04/30 11:23:11;;;;;;;0.60;0.40;;;;;;;25.95;32.79;94879.66;5072787;28;20441;-70
2023/04/30 11:25:48;;;;;;;0.60;0.40;;;;;;;26.14;32.22;94872.06;5072081;28;20485;-69
2023/04/30 11:28:19;;;;;;;0.50;0.30;;;;;;;26.41;32.17;94867.94;5072340;28;20430;-71
2023/04/30 11:30:52;;;;;;;0.50;0.50;;;;;;;27.25;31.42;94866.72;5074409;28;20430;-72
2023/04/30 11:33:21;;;;;;;0.50;0.30;;;;;;;28.18;30.11;94860.97;5072741;28;20441;-68
2023/04/30 11:35:51;;;;;;;0.50;0.30;;;;;;;28.46;29.61;94860.13;5072968;28;20448;-72
2023/04/30 11:38:22;;;;;;;0.50;0.30;;;;;;;27.59;30.52;94868.00;5072723;28;20461;-72
2023/04/30 11:40:51;;;;;;;1.50;0.40;;;;;;;27.39;30.10;94798.75;5072420;28;20989;-71
2023/04/30 11:43:26;;;;;;;1.43;0.50;;;;;;;27.88;29.99;94865.28;5071746;28;20461;-70
2023/04/30 11:46:05;;;;;;;0.50;0.50;;;;;;;28.23;29.60;94866.00;5072348;28;20469;-66
2023/04/30 11:48:35;;;;;;;0.50;0.50;;;;;;;28.52;28.70;94842.19;5047293;28;20438;-67